Hlavní strana
METAR-TAF:

METAR-TAF

Letiště :

Aklavik, Severozápadní teritoria, Kanada

zeměpisná šířka: 68-13N, zeměpisná délka: 135-00W, výška: 7 m

Aktuální stav počasí

Zpráva byla vytvořena před 1 hodinou a 18 minutami, v 23:00 UTC
Severozápadní vítr 9 kt
Teplota -4°C
Vlhkost vzduchu 100%
Tlak 1009 hPa
Viditelnost: 4.8 km
Zataženo ve výšce 700 ft
slabé sněžení, nízko zvířený sníh

METAR: CYKD 202300Z 31009KT 3SM -SN DRSN OVC007 M04/M04 A2980 RMK ST8 TR SNWCVR MUCHLOOSE LAST STFD /OBS/ NEXT 211400Z SLP094

Čas: 18:18 (00:18 UTC)


TAF: chybějící

Stav a předpovědi počasí z více než 4 000 letišť (zprávy METAR a TAF).

Červené a žluté tečky na mapě představují dostupné meteorologické stanice.

Když kurzor umístíte na tečku, zobrazí se název stanice.

Pak kliknutím zobrazíte stav a předpověď počasí.

Chcete-li změnit mapu, kliknutím na zelené tlačítko se znaménkem +mapu přiblížíte, kliknutím na zelené tlačítko se znaménkem – mapu oddálíte a kliknutím na zelené šipky přejdete na sousední mapy.


METAR-TAF: